sensor_id;sensor_type;location;lat;lon;timestamp;P1;durP1;ratioP1;P2;durP2;ratioP2
36321;SDS011;23564;48.290;11.460;2024-01-07T00:01:58;24.02;;;13.60;;
36321;SDS011;23564;48.290;11.460;2024-01-07T00:04:23;22.98;;;12.63;;
36321;SDS011;23564;48.290;11.460;2024-01-07T00:06:49;22.83;;;13.45;;
36321;SDS011;23564;48.290;11.460;2024-01-07T00:09:15;24.90;;;13.00;;
36321;SDS011;23564;48.290;11.460;2024-01-07T00:11:41;22.30;;;11.98;;
36321;SDS011;23564;48.290;11.460;2024-01-07T00:14:07;22.60;;;12.35;;
36321;SDS011;23564;48.290;11.460;2024-01-07T00:16:33;22.15;;;13.07;;
36321;SDS011;23564;48.290;11.460;2024-01-07T00:18:59;20.55;;;13.15;;
36321;SDS011;23564;48.290;11.460;2024-01-07T00:21:24;22.30;;;13.02;;
36321;SDS011;23564;48.290;11.460;2024-01-07T00:23:50;22.30;;;13.02;;
36321;SDS011;23564;48.290;11.460;2024-01-07T00:26:16;20.73;;;12.52;;
36321;SDS011;23564;48.290;11.460;2024-01-07T00:28:41;25.27;;;13.10;;
36321;SDS011;23564;48.290;11.460;2024-01-07T00:31:07;21.33;;;12.65;;
36321;SDS011;23564;48.290;11.460;2024-01-07T00:33:34;23.00;;;13.52;;
36321;SDS011;23564;48.290;11.460;2024-01-07T00:36:01;21.30;;;12.65;;
36321;SDS011;23564;48.290;11.460;2024-01-07T00:38:26;22.80;;;12.77;;
36321;SDS011;23564;48.290;11.460;2024-01-07T00:40:52;23.38;;;13.70;;
36321;SDS011;23564;48.290;11.460;2024-01-07T00:43:18;25.30;;;13.75;;
36321;SDS011;23564;48.290;11.460;2024-01-07T00:45:43;25.33;;;13.40;;
36321;SDS011;23564;48.290;11.460;2024-01-07T00:48:09;23.67;;;13.57;;
36321;SDS011;23564;48.290;11.460;2024-01-07T00:50:35;21.42;;;13.45;;
36321;SDS011;23564;48.290;11.460;2024-01-07T00:53:00;22.83;;;13.68;;
36321;SDS011;23564;48.290;11.460;2024-01-07T00:55:26;22.85;;;13.98;;
36321;SDS011;23564;48.290;11.460;2024-01-07T00:57:51;22.48;;;13.13;;
36321;SDS011;23564;48.290;11.460;2024-01-07T01:00:17;25.50;;;14.07;;
36321;SDS011;23564;48.290;11.460;2024-01-07T01:02:43;24.95;;;14.13;;
36321;SDS011;23564;48.290;11.460;2024-01-07T01:05:08;24.42;;;13.60;;
36321;SDS011;23564;48.290;11.460;2024-01-07T01:07:34;21.10;;;12.40;;
36321;SDS011;23564;48.290;11.460;2024-01-07T01:10:00;25.88;;;13.70;;
36321;SDS011;23564;48.290;11.460;2024-01-07T01:12:25;21.75;;;12.40;;
36321;SDS011;23564;48.290;11.460;2024-01-07T01:14:51;22.35;;;12.82;;
36321;SDS011;23564;48.290;11.460;2024-01-07T01:17:17;20.60;;;12.65;;
36321;SDS011;23564;48.290;11.460;2024-01-07T01:19:42;21.30;;;12.93;;
36321;SDS011;23564;48.290;11.460;2024-01-07T01:22:08;21.27;;;11.98;;
36321;SDS011;23564;48.290;11.460;2024-01-07T01:24:33;23.35;;;13.75;;
36321;SDS011;23564;48.290;11.460;2024-01-07T01:26:59;23.95;;;13.93;;
36321;SDS011;23564;48.290;11.460;2024-01-07T01:29:25;22.05;;;13.75;;
36321;SDS011;23564;48.290;11.460;2024-01-07T01:31:50;22.63;;;12.75;;
36321;SDS011;23564;48.290;11.460;2024-01-07T01:34:16;21.02;;;12.93;;
36321;SDS011;23564;48.290;11.460;2024-01-07T01:36:41;21.27;;;11.70;;
36321;SDS011;23564;48.290;11.460;2024-01-07T01:39:07;21.38;;;13.20;;
36321;SDS011;23564;48.290;11.460;2024-01-07T01:41:32;23.27;;;13.52;;
36321;SDS011;23564;48.290;11.460;2024-01-07T01:43:58;22.83;;;13.40;;
36321;SDS011;23564;48.290;11.460;2024-01-07T01:46:25;24.00;;;13.23;;
36321;SDS011;23564;48.290;11.460;2024-01-07T01:48:51;23.38;;;13.10;;
36321;SDS011;23564;48.290;11.460;2024-01-07T01:51:17;22.92;;;13.60;;
36321;SDS011;23564;48.290;11.460;2024-01-07T01:53:44;21.50;;;12.30;;
36321;SDS011;23564;48.290;11.460;2024-01-07T01:56:10;22.52;;;12.30;;
36321;SDS011;23564;48.290;11.460;2024-01-07T01:58:36;22.40;;;13.05;;
36321;SDS011;23564;48.290;11.460;2024-01-07T02:01:01;20.63;;;12.20;;
36321;SDS011;23564;48.290;11.460;2024-01-07T02:03:28;23.27;;;13.07;;
36321;SDS011;23564;48.290;11.460;2024-01-07T02:05:54;19.35;;;11.93;;
36321;SDS011;23564;48.290;11.460;2024-01-07T02:08:22;23.55;;;12.73;;
36321;SDS011;23564;48.290;11.460;2024-01-07T02:10:48;20.45;;;11.65;;
36321;SDS011;23564;48.290;11.460;2024-01-07T02:13:13;21.20;;;13.20;;
36321;SDS011;23564;48.290;11.460;2024-01-07T02:15:39;24.17;;;12.65;;
36321;SDS011;23564;48.290;11.460;2024-01-07T02:18:05;20.67;;;12.52;;
36321;SDS011;23564;48.290;11.460;2024-01-07T02:20:30;22.92;;;13.18;;
36321;SDS011;23564;48.290;11.460;2024-01-07T02:22:56;19.98;;;12.65;;
36321;SDS011;23564;48.290;11.460;2024-01-07T02:25:24;19.83;;;12.48;;
36321;SDS011;23564;48.290;11.460;2024-01-07T02:27:50;18.75;;;12.15;;
36321;SDS011;23564;48.290;11.460;2024-01-07T02:30:15;20.60;;;12.93;;
36321;SDS011;23564;48.290;11.460;2024-01-07T02:32:42;20.65;;;13.13;;
36321;SDS011;23564;48.290;11.460;2024-01-07T02:35:07;22.55;;;12.73;;
36321;SDS011;23564;48.290;11.460;2024-01-07T02:37:33;22.83;;;12.40;;
36321;SDS011;23564;48.290;11.460;2024-01-07T02:39:59;23.27;;;13.60;;
36321;SDS011;23564;48.290;11.460;2024-01-07T02:42:25;24.55;;;13.32;;
36321;SDS011;23564;48.290;11.460;2024-01-07T02:44:50;22.23;;;13.05;;
36321;SDS011;23564;48.290;11.460;2024-01-07T02:47:16;20.90;;;13.23;;
36321;SDS011;23564;48.290;11.460;2024-01-07T02:49:42;21.77;;;12.85;;
36321;SDS011;23564;48.290;11.460;2024-01-07T02:52:07;21.63;;;12.40;;
36321;SDS011;23564;48.290;11.460;2024-01-07T02:54:33;24.75;;;12.80;;
36321;SDS011;23564;48.290;11.460;2024-01-07T02:56:58;20.02;;;12.90;;
36321;SDS011;23564;48.290;11.460;2024-01-07T02:59:24;25.27;;;13.68;;
36321;SDS011;23564;48.290;11.460;2024-01-07T03:01:49;29.08;;;14.18;;
36321;SDS011;23564;48.290;11.460;2024-01-07T03:04:15;23.08;;;13.40;;
36321;SDS011;23564;48.290;11.460;2024-01-07T03:06:41;24.45;;;14.13;;
36321;SDS011;23564;48.290;11.460;2024-01-07T03:09:07;21.83;;;13.35;;
36321;SDS011;23564;48.290;11.460;2024-01-07T03:11:32;29.05;;;14.98;;
36321;SDS011;23564;48.290;11.460;2024-01-07T03:13:58;28.95;;;13.85;;
36321;SDS011;23564;48.290;11.460;2024-01-07T03:16:25;25.88;;;13.82;;
36321;SDS011;23564;48.290;11.460;2024-01-07T03:18:51;25.50;;;13.60;;
36321;SDS011;23564;48.290;11.460;2024-01-07T03:21:18;23.85;;;12.65;;
36321;SDS011;23564;48.290;11.460;2024-01-07T03:23:44;21.85;;;12.82;;
36321;SDS011;23564;48.290;11.460;2024-01-07T03:26:10;23.95;;;13.20;;
36321;SDS011;23564;48.290;11.460;2024-01-07T03:28:36;24.65;;;13.02;;
36321;SDS011;23564;48.290;11.460;2024-01-07T03:31:05;22.40;;;12.63;;
36321;SDS011;23564;48.290;11.460;2024-01-07T03:33:33;22.27;;;13.00;;
36321;SDS011;23564;48.290;11.460;2024-01-07T03:35:58;22.77;;;13.38;;
36321;SDS011;23564;48.290;11.460;2024-01-07T03:38:24;23.83;;;13.82;;
36321;SDS011;23564;48.290;11.460;2024-01-07T03:40:50;20.65;;;12.63;;
36321;SDS011;23564;48.290;11.460;2024-01-07T03:43:15;22.27;;;12.57;;
36321;SDS011;23564;48.290;11.460;2024-01-07T03:45:41;22.75;;;12.43;;
36321;SDS011;23564;48.290;11.460;2024-01-07T03:48:08;19.77;;;12.68;;
36321;SDS011;23564;48.290;11.460;2024-01-07T03:50:33;24.48;;;13.45;;
36321;SDS011;23564;48.290;11.460;2024-01-07T03:52:59;20.92;;;12.60;;
36321;SDS011;23564;48.290;11.460;2024-01-07T03:55:25;22.60;;;12.50;;
36321;SDS011;23564;48.290;11.460;2024-01-07T03:57:50;26.33;;;13.90;;
36321;SDS011;23564;48.290;11.460;2024-01-07T04:00:16;23.88;;;13.35;;
36321;SDS011;23564;48.290;11.460;2024-01-07T04:02:41;21.60;;;12.10;;
36321;SDS011;23564;48.290;11.460;2024-01-07T04:05:08;22.55;;;13.02;;
36321;SDS011;23564;48.290;11.460;2024-01-07T04:07:34;21.27;;;12.48;;
36321;SDS011;23564;48.290;11.460;2024-01-07T04:10:00;22.45;;;12.68;;
36321;SDS011;23564;48.290;11.460;2024-01-07T04:12:25;19.52;;;11.93;;
36321;SDS011;23564;48.290;11.460;2024-01-07T04:14:51;25.15;;;13.07;;
36321;SDS011;23564;48.290;11.460;2024-01-07T04:17:16;24.55;;;13.55;;
36321;SDS011;23564;48.290;11.460;2024-01-07T04:19:42;31.35;;;14.30;;
36321;SDS011;23564;48.290;11.460;2024-01-07T04:22:07;20.58;;;12.40;;
36321;SDS011;23564;48.290;11.460;2024-01-07T04:24:33;22.45;;;13.15;;
36321;SDS011;23564;48.290;11.460;2024-01-07T04:26:58;22.65;;;12.90;;
36321;SDS011;23564;48.290;11.460;2024-01-07T04:29:24;20.98;;;12.75;;
36321;SDS011;23564;48.290;11.460;2024-01-07T04:31:49;23.90;;;13.63;;
36321;SDS011;23564;48.290;11.460;2024-01-07T04:34:15;21.77;;;12.88;;
36321;SDS011;23564;48.290;11.460;2024-01-07T04:36:40;24.08;;;13.32;;
36321;SDS011;23564;48.290;11.460;2024-01-07T04:39:06;25.10;;;14.40;;
36321;SDS011;23564;48.290;11.460;2024-01-07T04:41:32;23.50;;;13.60;;
36321;SDS011;23564;48.290;11.460;2024-01-07T04:43:57;24.52;;;13.57;;
36321;SDS011;23564;48.290;11.460;2024-01-07T04:46:23;24.27;;;13.68;;
36321;SDS011;23564;48.290;11.460;2024-01-07T04:48:48;26.95;;;13.93;;
36321;SDS011;23564;48.290;11.460;2024-01-07T04:51:14;24.42;;;12.82;;
36321;SDS011;23564;48.290;11.460;2024-01-07T04:53:39;23.05;;;12.80;;
36321;SDS011;23564;48.290;11.460;2024-01-07T04:56:05;24.08;;;12.85;;
36321;SDS011;23564;48.290;11.460;2024-01-07T04:58:31;24.73;;;13.77;;
36321;SDS011;23564;48.290;11.460;2024-01-07T05:00:56;27.90;;;13.80;;
36321;SDS011;23564;48.290;11.460;2024-01-07T05:03:22;22.45;;;13.32;;
36321;SDS011;23564;48.290;11.460;2024-01-07T05:05:47;22.58;;;12.70;;
36321;SDS011;23564;48.290;11.460;2024-01-07T05:08:13;26.50;;;13.82;;
36321;SDS011;23564;48.290;11.460;2024-01-07T05:10:38;24.10;;;12.63;;
36321;SDS011;23564;48.290;11.460;2024-01-07T05:13:04;21.38;;;12.02;;
36321;SDS011;23564;48.290;11.460;2024-01-07T05:15:31;19.65;;;11.38;;
36321;SDS011;23564;48.290;11.460;2024-01-07T05:17:57;19.98;;;12.63;;
36321;SDS011;23564;48.290;11.460;2024-01-07T05:20:22;23.25;;;13.55;;
36321;SDS011;23564;48.290;11.460;2024-01-07T05:22:48;24.13;;;13.48;;
36321;SDS011;23564;48.290;11.460;2024-01-07T05:25:13;23.15;;;12.27;;
36321;SDS011;23564;48.290;11.460;2024-01-07T05:27:39;19.38;;;10.93;;
36321;SDS011;23564;48.290;11.460;2024-01-07T05:30:05;18.48;;;10.93;;
36321;SDS011;23564;48.290;11.460;2024-01-07T05:32:32;19.60;;;11.80;;
36321;SDS011;23564;48.290;11.460;2024-01-07T05:34:58;22.48;;;11.60;;
36321;SDS011;23564;48.290;11.460;2024-01-07T05:37:23;17.33;;;10.93;;
36321;SDS011;23564;48.290;11.460;2024-01-07T05:39:49;20.63;;;11.80;;
36321;SDS011;23564;48.290;11.460;2024-01-07T05:42:14;17.13;;;9.90;;
36321;SDS011;23564;48.290;11.460;2024-01-07T05:44:40;16.35;;;9.82;;
36321;SDS011;23564;48.290;11.460;2024-01-07T05:47:05;17.80;;;9.05;;
36321;SDS011;23564;48.290;11.460;2024-01-07T05:49:31;16.05;;;9.10;;
36321;SDS011;23564;48.290;11.460;2024-01-07T05:51:57;14.75;;;9.32;;
36321;SDS011;23564;48.290;11.460;2024-01-07T05:54:23;15.25;;;9.68;;
36321;SDS011;23564;48.290;11.460;2024-01-07T05:56:48;15.70;;;8.73;;
36321;SDS011;23564;48.290;11.460;2024-01-07T05:59:14;15.60;;;9.43;;
36321;SDS011;23564;48.290;11.460;2024-01-07T06:01:40;15.25;;;9.20;;
36321;SDS011;23564;48.290;11.460;2024-01-07T06:04:05;13.98;;;8.90;;
36321;SDS011;23564;48.290;11.460;2024-01-07T06:06:31;15.80;;;9.88;;
36321;SDS011;23564;48.290;11.460;2024-01-07T06:08:57;17.77;;;9.90;;
36321;SDS011;23564;48.290;11.460;2024-01-07T06:11:22;14.88;;;9.43;;
36321;SDS011;23564;48.290;11.460;2024-01-07T06:13:48;14.65;;;8.45;;
36321;SDS011;23564;48.290;11.460;2024-01-07T06:16:13;14.77;;;9.65;;
36321;SDS011;23564;48.290;11.460;2024-01-07T06:18:39;15.07;;;8.73;;
36321;SDS011;23564;48.290;11.460;2024-01-07T06:21:05;14.98;;;9.20;;
36321;SDS011;23564;48.290;11.460;2024-01-07T06:23:32;18.13;;;9.95;;
36321;SDS011;23564;48.290;11.460;2024-01-07T06:25:58;17.35;;;10.30;;
36321;SDS011;23564;48.290;11.460;2024-01-07T06:28:23;16.17;;;9.57;;
36321;SDS011;23564;48.290;11.460;2024-01-07T06:30:49;15.88;;;8.85;;
36321;SDS011;23564;48.290;11.460;2024-01-07T06:33:14;15.93;;;9.35;;
36321;SDS011;23564;48.290;11.460;2024-01-07T06:35:40;17.23;;;9.70;;
36321;SDS011;23564;48.290;11.460;2024-01-07T06:38:06;15.68;;;9.10;;
36321;SDS011;23564;48.290;11.460;2024-01-07T06:40:31;14.05;;;9.23;;
36321;SDS011;23564;48.290;11.460;2024-01-07T06:42:57;16.27;;;9.00;;
36321;SDS011;23564;48.290;11.460;2024-01-07T06:45:23;13.20;;;8.18;;
36321;SDS011;23564;48.290;11.460;2024-01-07T06:47:48;18.38;;;9.82;;
36321;SDS011;23564;48.290;11.460;2024-01-07T06:50:14;13.95;;;8.82;;
36321;SDS011;23564;48.290;11.460;2024-01-07T06:52:39;18.13;;;9.25;;
36321;SDS011;23564;48.290;11.460;2024-01-07T06:55:05;19.27;;;9.65;;
36321;SDS011;23564;48.290;11.460;2024-01-07T06:57:31;17.08;;;9.55;;
36321;SDS011;23564;48.290;11.460;2024-01-07T06:59:57;18.75;;;9.40;;
36321;SDS011;23564;48.290;11.460;2024-01-07T07:02:22;16.38;;;9.13;;
36321;SDS011;23564;48.290;11.460;2024-01-07T07:04:48;16.90;;;9.55;;
36321;SDS011;23564;48.290;11.460;2024-01-07T07:07:15;17.50;;;9.05;;
36321;SDS011;23564;48.290;11.460;2024-01-07T07:09:41;16.00;;;8.93;;
36321;SDS011;23564;48.290;11.460;2024-01-07T07:12:07;18.63;;;9.50;;
36321;SDS011;23564;48.290;11.460;2024-01-07T07:14:33;16.90;;;9.43;;
36321;SDS011;23564;48.290;11.460;2024-01-07T07:16:58;16.58;;;9.63;;
36321;SDS011;23564;48.290;11.460;2024-01-07T07:19:24;17.13;;;9.63;;
36321;SDS011;23564;48.290;11.460;2024-01-07T07:21:49;15.90;;;9.65;;
36321;SDS011;23564;48.290;11.460;2024-01-07T07:24:15;17.77;;;9.35;;
36321;SDS011;23564;48.290;11.460;2024-01-07T07:26:40;17.00;;;9.82;;
36321;SDS011;23564;48.290;11.460;2024-01-07T07:29:07;16.65;;;9.45;;
36321;SDS011;23564;48.290;11.460;2024-01-07T07:31:34;17.33;;;9.48;;
36321;SDS011;23564;48.290;11.460;2024-01-07T07:34:01;17.10;;;9.95;;
36321;SDS011;23564;48.290;11.460;2024-01-07T07:36:28;15.50;;;8.70;;
36321;SDS011;23564;48.290;11.460;2024-01-07T07:38:54;14.70;;;9.15;;
36321;SDS011;23564;48.290;11.460;2024-01-07T07:41:20;20.52;;;10.10;;
36321;SDS011;23564;48.290;11.460;2024-01-07T07:43:45;17.95;;;9.15;;
36321;SDS011;23564;48.290;11.460;2024-01-07T07:46:11;18.70;;;10.05;;
36321;SDS011;23564;48.290;11.460;2024-01-07T07:48:38;19.80;;;10.38;;
36321;SDS011;23564;48.290;11.460;2024-01-07T07:51:04;17.92;;;10.38;;
36321;SDS011;23564;48.290;11.460;2024-01-07T07:53:29;18.52;;;9.95;;
36321;SDS011;23564;48.290;11.460;2024-01-07T07:55:55;19.70;;;10.35;;
36321;SDS011;23564;48.290;11.460;2024-01-07T07:58:20;19.08;;;10.38;;
36321;SDS011;23564;48.290;11.460;2024-01-07T08:00:46;44.45;;;23.48;;
36321;SDS011;23564;48.290;11.460;2024-01-07T08:03:12;28.77;;;13.77;;
36321;SDS011;23564;48.290;11.460;2024-01-07T08:05:37;33.72;;;16.67;;
36321;SDS011;23564;48.290;11.460;2024-01-07T08:08:03;22.00;;;10.77;;
36321;SDS011;23564;48.290;11.460;2024-01-07T08:10:29;27.90;;;12.68;;
36321;SDS011;23564;48.290;11.460;2024-01-07T08:12:57;31.13;;;12.77;;
36321;SDS011;23564;48.290;11.460;2024-01-07T08:15:23;28.33;;;14.52;;
36321;SDS011;23564;48.290;11.460;2024-01-07T08:17:48;25.02;;;12.52;;
36321;SDS011;23564;48.290;11.460;2024-01-07T08:20:16;27.13;;;13.55;;
36321;SDS011;23564;48.290;11.460;2024-01-07T08:22:42;26.33;;;12.73;;
36321;SDS011;23564;48.290;11.460;2024-01-07T08:25:07;26.92;;;13.48;;
36321;SDS011;23564;48.290;11.460;2024-01-07T08:27:33;26.92;;;12.73;;
36321;SDS011;23564;48.290;11.460;2024-01-07T08:30:00;26.27;;;13.98;;
36321;SDS011;23564;48.290;11.460;2024-01-07T08:32:26;30.83;;;15.35;;
36321;SDS011;23564;48.290;11.460;2024-01-07T08:34:51;32.13;;;14.23;;
36321;SDS011;23564;48.290;11.460;2024-01-07T08:37:17;25.33;;;13.90;;
36321;SDS011;23564;48.290;11.460;2024-01-07T08:39:42;27.45;;;14.43;;
36321;SDS011;23564;48.290;11.460;2024-01-07T08:42:08;27.40;;;13.32;;
36321;SDS011;23564;48.290;11.460;2024-01-07T08:44:34;23.95;;;12.23;;
36321;SDS011;23564;48.290;11.460;2024-01-07T08:46:59;22.25;;;13.13;;
36321;SDS011;23564;48.290;11.460;2024-01-07T08:49:27;24.90;;;13.02;;
36321;SDS011;23564;48.290;11.460;2024-01-07T08:51:54;22.55;;;11.82;;
36321;SDS011;23564;48.290;11.460;2024-01-07T08:54:21;22.23;;;11.35;;
36321;SDS011;23564;48.290;11.460;2024-01-07T08:56:47;24.08;;;11.80;;
36321;SDS011;23564;48.290;11.460;2024-01-07T08:59:12;25.30;;;12.02;;
36321;SDS011;23564;48.290;11.460;2024-01-07T09:01:38;22.17;;;12.15;;
36321;SDS011;23564;48.290;11.460;2024-01-07T09:04:03;20.98;;;11.95;;
36321;SDS011;23564;48.290;11.460;2024-01-07T09:06:29;25.20;;;12.38;;
36321;SDS011;23564;48.290;11.460;2024-01-07T09:08:54;26.13;;;13.68;;
36321;SDS011;23564;48.290;11.460;2024-01-07T09:11:20;22.02;;;11.57;;
36321;SDS011;23564;48.290;11.460;2024-01-07T09:13:45;20.77;;;11.23;;
36321;SDS011;23564;48.290;11.460;2024-01-07T09:16:13;27.98;;;12.07;;
36321;SDS011;23564;48.290;11.460;2024-01-07T09:18:39;22.60;;;11.23;;
36321;SDS011;23564;48.290;11.460;2024-01-07T09:21:05;24.13;;;11.60;;
36321;SDS011;23564;48.290;11.460;2024-01-07T09:23:31;24.80;;;11.93;;
36321;SDS011;23564;48.290;11.460;2024-01-07T09:25:58;23.00;;;11.77;;
36321;SDS011;23564;48.290;11.460;2024-01-07T09:28:24;24.20;;;12.40;;
36321;SDS011;23564;48.290;11.460;2024-01-07T09:30:50;22.35;;;11.63;;
36321;SDS011;23564;48.290;11.460;2024-01-07T09:33:15;23.15;;;11.95;;
36321;SDS011;23564;48.290;11.460;2024-01-07T09:35:41;21.73;;;11.98;;
36321;SDS011;23564;48.290;11.460;2024-01-07T09:38:08;23.27;;;12.20;;
36321;SDS011;23564;48.290;11.460;2024-01-07T09:40:34;26.30;;;12.40;;
36321;SDS011;23564;48.290;11.460;2024-01-07T09:42:59;24.63;;;12.02;;
36321;SDS011;23564;48.290;11.460;2024-01-07T09:45:25;27.17;;;11.93;;
36321;SDS011;23564;48.290;11.460;2024-01-07T09:47:53;21.90;;;11.23;;
36321;SDS011;23564;48.290;11.460;2024-01-07T09:50:19;22.08;;;11.60;;
36321;SDS011;23564;48.290;11.460;2024-01-07T09:52:45;22.42;;;11.82;;
36321;SDS011;23564;48.290;11.460;2024-01-07T09:55:21;23.50;;;11.63;;
36321;SDS011;23564;48.290;11.460;2024-01-07T09:57:53;28.10;;;12.82;;
36321;SDS011;23564;48.290;11.460;2024-01-07T10:00:19;25.33;;;12.40;;
36321;SDS011;23564;48.290;11.460;2024-01-07T10:02:45;23.30;;;11.52;;
36321;SDS011;23564;48.290;11.460;2024-01-07T10:05:10;21.83;;;10.93;;
36321;SDS011;23564;48.290;11.460;2024-01-07T10:07:36;24.27;;;11.75;;
36321;SDS011;23564;48.290;11.460;2024-01-07T10:10:17;23.30;;;12.35;;
36321;SDS011;23564;48.290;11.460;2024-01-07T10:12:46;19.10;;;10.02;;
36321;SDS011;23564;48.290;11.460;2024-01-07T10:15:12;21.65;;;10.88;;
36321;SDS011;23564;48.290;11.460;2024-01-07T10:17:39;21.45;;;11.10;;
36321;SDS011;23564;48.290;11.460;2024-01-07T10:20:07;20.15;;;10.27;;
36321;SDS011;23564;48.290;11.460;2024-01-07T10:22:38;19.33;;;10.52;;
36321;SDS011;23564;48.290;11.460;2024-01-07T10:25:04;16.95;;;9.30;;
36321;SDS011;23564;48.290;11.460;2024-01-07T10:27:33;23.38;;;11.00;;
36321;SDS011;23564;48.290;11.460;2024-01-07T10:30:01;21.55;;;11.57;;
36321;SDS011;23564;48.290;11.460;2024-01-07T10:32:27;21.67;;;10.63;;
36321;SDS011;23564;48.290;11.460;2024-01-07T10:34:54;19.55;;;10.80;;
36321;SDS011;23564;48.290;11.460;2024-01-07T10:37:27;23.73;;;11.70;;
36321;SDS011;23564;48.290;11.460;2024-01-07T10:39:52;24.15;;;11.50;;
36321;SDS011;23564;48.290;11.460;2024-01-07T10:42:21;24.90;;;12.68;;
36321;SDS011;23564;48.290;11.460;2024-01-07T10:44:48;24.77;;;12.63;;
36321;SDS011;23564;48.290;11.460;2024-01-07T10:47:14;21.42;;;11.38;;
36321;SDS011;23564;48.290;11.460;2024-01-07T10:49:44;23.88;;;11.40;;
36321;SDS011;23564;48.290;11.460;2024-01-07T10:52:12;25.25;;;13.10;;
36321;SDS011;23564;48.290;11.460;2024-01-07T10:54:38;21.35;;;12.18;;
36321;SDS011;23564;48.290;11.460;2024-01-07T10:57:26;23.25;;;11.73;;
36321;SDS011;23564;48.290;11.460;2024-01-07T11:00:02;22.50;;;10.23;;
36321;SDS011;23564;48.290;11.460;2024-01-07T11:02:37;21.17;;;10.77;;
36321;SDS011;23564;48.290;11.460;2024-01-07T11:05:14;25.45;;;11.73;;
36321;SDS011;23564;48.290;11.460;2024-01-07T11:08:03;20.15;;;10.65;;
36321;SDS011;23564;48.290;11.460;2024-01-07T11:10:39;27.73;;;14.05;;
36321;SDS011;23564;48.290;11.460;2024-01-07T11:13:09;22.48;;;11.40;;
36321;SDS011;23564;48.290;11.460;2024-01-07T11:18:19;18.13;;;9.52;;
36321;SDS011;23564;48.290;11.460;2024-01-07T11:20:46;17.80;;;8.93;;
36321;SDS011;23564;48.290;11.460;2024-01-07T11:26:02;17.52;;;9.18;;
36321;SDS011;23564;48.290;11.460;2024-01-07T11:31:21;15.02;;;8.63;;
36321;SDS011;23564;48.290;11.460;2024-01-07T11:34:07;17.20;;;8.90;;
36321;SDS011;23564;48.290;11.460;2024-01-07T11:36:34;16.80;;;9.00;;
36321;SDS011;23564;48.290;11.460;2024-01-07T11:39:01;15.15;;;8.50;;
36321;SDS011;23564;48.290;11.460;2024-01-07T11:41:28;15.27;;;8.30;;
36321;SDS011;23564;48.290;11.460;2024-01-07T11:43:59;16.60;;;8.95;;
36321;SDS011;23564;48.290;11.460;2024-01-07T11:46:29;14.73;;;8.13;;
36321;SDS011;23564;48.290;11.460;2024-01-07T11:48:58;14.80;;;8.10;;
36321;SDS011;23564;48.290;11.460;2024-01-07T11:51:25;17.70;;;8.82;;
36321;SDS011;23564;48.290;11.460;2024-01-07T11:53:55;16.03;;;8.73;;
36321;SDS011;23564;48.290;11.460;2024-01-07T11:56:22;15.43;;;9.30;;
36321;SDS011;23564;48.290;11.460;2024-01-07T11:58:47;19.27;;;9.52;;
36321;SDS011;23564;48.290;11.460;2024-01-07T12:01:16;18.33;;;9.38;;
36321;SDS011;23564;48.290;11.460;2024-01-07T12:03:43;17.52;;;9.80;;
36321;SDS011;23564;48.290;11.460;2024-01-07T12:06:09;18.90;;;10.07;;
36321;SDS011;23564;48.290;11.460;2024-01-07T12:08:39;17.23;;;9.77;;
36321;SDS011;23564;48.290;11.460;2024-01-07T12:11:08;18.80;;;9.57;;
36321;SDS011;23564;48.290;11.460;2024-01-07T12:13:36;14.30;;;9.07;;
36321;SDS011;23564;48.290;11.460;2024-01-07T12:16:02;21.38;;;11.07;;
36321;SDS011;23564;48.290;11.460;2024-01-07T12:18:29;21.05;;;12.20;;
36321;SDS011;23564;48.290;11.460;2024-01-07T12:20:55;17.33;;;10.27;;
36321;SDS011;23564;48.290;11.460;2024-01-07T12:23:22;17.02;;;9.23;;
36321;SDS011;23564;48.290;11.460;2024-01-07T12:25:48;17.75;;;9.35;;
36321;SDS011;23564;48.290;11.460;2024-01-07T12:28:13;16.92;;;9.68;;
36321;SDS011;23564;48.290;11.460;2024-01-07T12:30:41;20.50;;;10.15;;
36321;SDS011;23564;48.290;11.460;2024-01-07T12:33:07;21.88;;;10.65;;
36321;SDS011;23564;48.290;11.460;2024-01-07T12:35:33;19.63;;;10.25;;
36321;SDS011;23564;48.290;11.460;2024-01-07T12:37:59;19.00;;;10.07;;
36321;SDS011;23564;48.290;11.460;2024-01-07T12:40:25;18.25;;;9.98;;
36321;SDS011;23564;48.290;11.460;2024-01-07T12:42:52;18.98;;;10.00;;
36321;SDS011;23564;48.290;11.460;2024-01-07T12:45:18;20.80;;;11.15;;
36321;SDS011;23564;48.290;11.460;2024-01-07T12:47:44;18.55;;;10.18;;
36321;SDS011;23564;48.290;11.460;2024-01-07T12:50:10;21.98;;;11.25;;
36321;SDS011;23564;48.290;11.460;2024-01-07T12:52:38;20.42;;;10.48;;
36321;SDS011;23564;48.290;11.460;2024-01-07T12:55:04;21.83;;;10.85;;
36321;SDS011;23564;48.290;11.460;2024-01-07T12:57:30;21.23;;;10.65;;
36321;SDS011;23564;48.290;11.460;2024-01-07T12:59:56;24.98;;;12.38;;
36321;SDS011;23564;48.290;11.460;2024-01-07T13:02:22;27.52;;;13.27;;
36321;SDS011;23564;48.290;11.460;2024-01-07T13:04:48;17.98;;;9.85;;
36321;SDS011;23564;48.290;11.460;2024-01-07T13:07:14;14.63;;;8.73;;
36321;SDS011;23564;48.290;11.460;2024-01-07T13:09:40;18.33;;;10.02;;
36321;SDS011;23564;48.290;11.460;2024-01-07T13:12:05;20.88;;;9.25;;
36321;SDS011;23564;48.290;11.460;2024-01-07T13:14:31;15.75;;;8.77;;
36321;SDS011;23564;48.290;11.460;2024-01-07T13:16:56;22.38;;;11.00;;
36321;SDS011;23564;48.290;11.460;2024-01-07T13:19:23;17.00;;;9.40;;
36321;SDS011;23564;48.290;11.460;2024-01-07T13:21:50;20.95;;;10.88;;
36321;SDS011;23564;48.290;11.460;2024-01-07T13:24:16;17.02;;;8.90;;
36321;SDS011;23564;48.290;11.460;2024-01-07T13:26:41;16.85;;;9.40;;
36321;SDS011;23564;48.290;11.460;2024-01-07T13:29:07;16.08;;;9.05;;
36321;SDS011;23564;48.290;11.460;2024-01-07T13:31:32;15.13;;;8.45;;
36321;SDS011;23564;48.290;11.460;2024-01-07T13:33:58;18.23;;;9.32;;
36321;SDS011;23564;48.290;11.460;2024-01-07T13:36:23;17.15;;;9.35;;
36321;SDS011;23564;48.290;11.460;2024-01-07T13:38:49;18.85;;;9.45;;
36321;SDS011;23564;48.290;11.460;2024-01-07T13:41:15;16.52;;;10.45;;
36321;SDS011;23564;48.290;11.460;2024-01-07T13:43:41;20.45;;;10.75;;
36321;SDS011;23564;48.290;11.460;2024-01-07T13:46:07;23.30;;;11.27;;
36321;SDS011;23564;48.290;11.460;2024-01-07T13:48:34;16.58;;;10.35;;
36321;SDS011;23564;48.290;11.460;2024-01-07T13:50:59;19.60;;;10.80;;
36321;SDS011;23564;48.290;11.460;2024-01-07T13:53:25;22.20;;;11.82;;
36321;SDS011;23564;48.290;11.460;2024-01-07T13:55:51;19.63;;;10.45;;
36321;SDS011;23564;48.290;11.460;2024-01-07T13:58:16;23.35;;;12.57;;
36321;SDS011;23564;48.290;11.460;2024-01-07T14:00:42;21.70;;;11.68;;
36321;SDS011;23564;48.290;11.460;2024-01-07T14:03:08;20.85;;;11.38;;
36321;SDS011;23564;48.290;11.460;2024-01-07T14:05:33;17.23;;;10.07;;
36321;SDS011;23564;48.290;11.460;2024-01-07T14:07:59;21.20;;;10.65;;
36321;SDS011;23564;48.290;11.460;2024-01-07T14:10:24;17.48;;;9.45;;
36321;SDS011;23564;48.290;11.460;2024-01-07T14:12:50;18.77;;;10.27;;
36321;SDS011;23564;48.290;11.460;2024-01-07T14:15:16;17.50;;;10.00;;